sensor_id;sensor_type;location;lat;lon;timestamp;pressure;altitude;pressure_sealevel;temperature;humidity
9774;BME280;4926;42.670;23.316;2023-03-20T00:01:19;94843.56;;;8.89;65.89
9774;BME280;4926;42.670;23.316;2023-03-20T00:03:47;94847.03;;;8.84;66.02
9774;BME280;4926;42.670;23.316;2023-03-20T00:06:14;94846.28;;;8.64;66.73
9774;BME280;4926;42.670;23.316;2023-03-20T00:08:49;94842.00;;;8.63;66.85
9774;BME280;4926;42.670;23.316;2023-03-20T00:11:27;94845.72;;;8.67;66.97
9774;BME280;4926;42.670;23.316;2023-03-20T00:13:55;94844.69;;;8.53;67.66
9774;BME280;4926;42.670;23.316;2023-03-20T00:16:29;94850.50;;;8.60;67.75
9774;BME280;4926;42.670;23.316;2023-03-20T00:19:09;94841.50;;;8.66;67.65
9774;BME280;4926;42.670;23.316;2023-03-20T00:21:39;94837.28;;;8.45;68.20
9774;BME280;4926;42.670;23.316;2023-03-20T00:24:06;94839.88;;;8.20;69.18
9774;BME280;4926;42.670;23.316;2023-03-20T00:26:35;94846.25;;;8.19;69.26
9774;BME280;4926;42.670;23.316;2023-03-20T00:29:04;94846.28;;;8.34;69.16
9774;BME280;4926;42.670;23.316;2023-03-20T00:31:34;94843.09;;;8.27;69.19
9774;BME280;4926;42.670;23.316;2023-03-20T00:34:10;94834.00;;;7.82;70.90
9774;BME280;4926;42.670;23.316;2023-03-20T00:36:37;94847.44;;;7.51;72.94
9774;BME280;4926;42.670;23.316;2023-03-20T00:39:11;94851.84;;;7.25;75.13
9774;BME280;4926;42.670;23.316;2023-03-20T00:41:42;94843.22;;;6.98;77.76
9774;BME280;4926;42.670;23.316;2023-03-20T00:44:18;94850.09;;;6.89;78.96
9774;BME280;4926;42.670;23.316;2023-03-20T00:46:49;94840.13;;;7.06;78.58
9774;BME280;4926;42.670;23.316;2023-03-20T00:49:19;94850.75;;;7.16;78.33
9774;BME280;4926;42.670;23.316;2023-03-20T00:51:51;94851.63;;;7.37;76.94
9774;BME280;4926;42.670;23.316;2023-03-20T00:54:17;94842.34;;;7.34;76.38
9774;BME280;4926;42.670;23.316;2023-03-20T00:56:50;94845.06;;;7.54;75.54
9774;BME280;4926;42.670;23.316;2023-03-20T00:59:21;94828.41;;;7.64;74.66
9774;BME280;4926;42.670;23.316;2023-03-20T01:01:52;94834.47;;;7.59;74.59
9774;BME280;4926;42.670;23.316;2023-03-20T01:04:22;94841.34;;;7.50;74.55
9774;BME280;4926;42.670;23.316;2023-03-20T01:06:48;94839.75;;;7.49;74.84
9774;BME280;4926;42.670;23.316;2023-03-20T01:09:18;94831.53;;;7.51;74.65
9774;BME280;4926;42.670;23.316;2023-03-20T01:11:47;94835.00;;;7.56;74.50
9774;BME280;4926;42.670;23.316;2023-03-20T01:14:14;94823.38;;;7.57;74.44
9774;BME280;4926;42.670;23.316;2023-03-20T01:16:44;94807.97;;;7.54;74.23
9774;BME280;4926;42.670;23.316;2023-03-20T01:19:15;94817.28;;;7.77;74.07
9774;BME280;4926;42.670;23.316;2023-03-20T01:21:42;94821.56;;;7.78;73.92
9774;BME280;4926;42.670;23.316;2023-03-20T01:24:09;94818.09;;;7.82;74.20
9774;BME280;4926;42.670;23.316;2023-03-20T01:26:37;94815.72;;;7.81;73.84
9774;BME280;4926;42.670;23.316;2023-03-20T01:29:15;94814.91;;;7.70;74.09
9774;BME280;4926;42.670;23.316;2023-03-20T01:31:43;94814.88;;;7.50;74.37
9774;BME280;4926;42.670;23.316;2023-03-20T01:34:18;94819.56;;;7.38;75.13
9774;BME280;4926;42.670;23.316;2023-03-20T01:36:49;94821.47;;;7.48;75.14
9774;BME280;4926;42.670;23.316;2023-03-20T01:39:16;94807.13;;;7.34;75.42
9774;BME280;4926;42.670;23.316;2023-03-20T01:41:47;94829.97;;;7.60;75.75
9774;BME280;4926;42.670;23.316;2023-03-20T01:44:21;94827.88;;;7.72;75.38
9774;BME280;4926;42.670;23.316;2023-03-20T01:46:49;94830.25;;;7.73;75.16
9774;BME280;4926;42.670;23.316;2023-03-20T01:52:22;94832.34;;;7.51;76.61
9774;BME280;4926;42.670;23.316;2023-03-20T01:54:49;94839.78;;;7.59;76.48
9774;BME280;4926;42.670;23.316;2023-03-20T01:57:18;94838.19;;;7.63;76.37
9774;BME280;4926;42.670;23.316;2023-03-20T01:59:49;94851.47;;;7.73;75.86
9774;BME280;4926;42.670;23.316;2023-03-20T02:02:20;94847.75;;;7.64;75.65
9774;BME280;4926;42.670;23.316;2023-03-20T02:04:53;94836.34;;;7.64;75.70
9774;BME280;4926;42.670;23.316;2023-03-20T02:07:27;94836.50;;;7.27;76.34
9774;BME280;4926;42.670;23.316;2023-03-20T02:09:54;94841.22;;;7.15;77.04
9774;BME280;4926;42.670;23.316;2023-03-20T02:12:21;94834.41;;;6.82;78.65
9774;BME280;4926;42.670;23.316;2023-03-20T02:14:49;94824.63;;;6.78;79.47
9774;BME280;4926;42.670;23.316;2023-03-20T02:17:19;94833.97;;;6.49;81.66
9774;BME280;4926;42.670;23.316;2023-03-20T02:19:56;94828.53;;;6.29;84.14
9774;BME280;4926;42.670;23.316;2023-03-20T02:25:41;94832.84;;;6.40;84.85
9774;BME280;4926;42.670;23.316;2023-03-20T02:31:40;94841.47;;;6.67;82.93
9774;BME280;4926;42.670;23.316;2023-03-20T02:37:45;94851.09;;;6.83;82.80
9774;BME280;4926;42.670;23.316;2023-03-20T02:40:23;94841.63;;;6.92;82.02
9774;BME280;4926;42.670;23.316;2023-03-20T02:42:57;94834.25;;;6.99;81.52
9774;BME280;4926;42.670;23.316;2023-03-20T02:45:32;94833.78;;;7.12;80.82
9774;BME280;4926;42.670;23.316;2023-03-20T02:48:08;94826.94;;;7.21;80.25
9774;BME280;4926;42.670;23.316;2023-03-20T02:50:41;94821.06;;;7.14;80.03
9774;BME280;4926;42.670;23.316;2023-03-20T02:53:18;94819.97;;;7.00;79.93
9774;BME280;4926;42.670;23.316;2023-03-20T02:55:54;94828.84;;;6.79;81.32
9774;BME280;4926;42.670;23.316;2023-03-20T02:58:27;94827.13;;;6.58;82.33
9774;BME280;4926;42.670;23.316;2023-03-20T03:00:59;94822.59;;;6.48;82.76
9774;BME280;4926;42.670;23.316;2023-03-20T03:03:32;94822.28;;;6.45;83.29
9774;BME280;4926;42.670;23.316;2023-03-20T03:06:06;94814.91;;;6.47;83.52
9774;BME280;4926;42.670;23.316;2023-03-20T03:08:39;94822.97;;;6.72;84.78
9774;BME280;4926;42.670;23.316;2023-03-20T03:11:09;94831.22;;;6.80;83.74
9774;BME280;4926;42.670;23.316;2023-03-20T03:13:41;94822.25;;;6.82;83.37
9774;BME280;4926;42.670;23.316;2023-03-20T03:16:13;94818.53;;;6.77;83.33
9774;BME280;4926;42.670;23.316;2023-03-20T03:18:45;94814.63;;;6.90;83.19
9774;BME280;4926;42.670;23.316;2023-03-20T03:21:15;94818.09;;;6.96;82.76
9774;BME280;4926;42.670;23.316;2023-03-20T03:23:46;94820.50;;;7.02;82.38
9774;BME280;4926;42.670;23.316;2023-03-20T03:26:20;94818.16;;;7.11;81.29
9774;BME280;4926;42.670;23.316;2023-03-20T03:28:51;94825.81;;;7.07;81.34
9774;BME280;4926;42.670;23.316;2023-03-20T03:31:20;94827.44;;;7.13;80.58
9774;BME280;4926;42.670;23.316;2023-03-20T03:33:49;94824.28;;;7.21;80.28
9774;BME280;4926;42.670;23.316;2023-03-20T03:36:24;94824.56;;;7.20;80.22
9774;BME280;4926;42.670;23.316;2023-03-20T03:38:57;94813.13;;;7.14;79.82
9774;BME280;4926;42.670;23.316;2023-03-20T03:41:29;94829.84;;;7.20;80.24
9774;BME280;4926;42.670;23.316;2023-03-20T03:44:08;94823.25;;;7.22;79.52
9774;BME280;4926;42.670;23.316;2023-03-20T03:46:40;94827.47;;;7.23;79.50
9774;BME280;4926;42.670;23.316;2023-03-20T03:49:15;94817.38;;;7.10;79.42
9774;BME280;4926;42.670;23.316;2023-03-20T03:51:47;94821.63;;;7.16;79.43
9774;BME280;4926;42.670;23.316;2023-03-20T03:54:21;94819.25;;;7.20;79.48
9774;BME280;4926;42.670;23.316;2023-03-20T03:56:54;94817.69;;;7.19;79.46
9774;BME280;4926;42.670;23.316;2023-03-20T03:59:25;94815.75;;;7.04;79.60
9774;BME280;4926;42.670;23.316;2023-03-20T04:01:53;94811.94;;;6.85;80.28
9774;BME280;4926;42.670;23.316;2023-03-20T04:04:24;94818.00;;;6.39;82.46
9774;BME280;4926;42.670;23.316;2023-03-20T04:06:51;94825.25;;;6.17;84.61
9774;BME280;4926;42.670;23.316;2023-03-20T04:09:19;94823.19;;;5.92;87.52
9774;BME280;4926;42.670;23.316;2023-03-20T04:11:49;94826.66;;;5.71;90.01
9774;BME280;4926;42.670;23.316;2023-03-20T04:14:17;94818.72;;;5.44;93.40
9774;BME280;4926;42.670;23.316;2023-03-20T04:16:44;94824.25;;;5.43;94.90
9774;BME280;4926;42.670;23.316;2023-03-20T04:19:13;94820.16;;;5.30;95.78
9774;BME280;4926;42.670;23.316;2023-03-20T04:21:41;94810.50;;;5.14;98.19
9774;BME280;4926;42.670;23.316;2023-03-20T04:24:07;94825.03;;;4.95;100.00
9774;BME280;4926;42.670;23.316;2023-03-20T04:26:36;94815.56;;;4.78;100.00
9774;BME280;4926;42.670;23.316;2023-03-20T04:29:04;94813.69;;;4.73;100.00
9774;BME280;4926;42.670;23.316;2023-03-20T04:31:31;94818.81;;;4.63;100.00
9774;BME280;4926;42.670;23.316;2023-03-20T04:34:00;94796.41;;;4.44;100.00
9774;BME280;4926;42.670;23.316;2023-03-20T04:36:26;94806.78;;;4.34;100.00
9774;BME280;4926;42.670;23.316;2023-03-20T04:38:53;94808.59;;;4.50;100.00
9774;BME280;4926;42.670;23.316;2023-03-20T04:41:20;94797.09;;;4.56;100.00
9774;BME280;4926;42.670;23.316;2023-03-20T04:43:48;94809.84;;;4.64;100.00
9774;BME280;4926;42.670;23.316;2023-03-20T04:46:15;94812.84;;;4.89;100.00
9774;BME280;4926;42.670;23.316;2023-03-20T04:48:42;94812.28;;;5.09;100.00
9774;BME280;4926;42.670;23.316;2023-03-20T04:51:11;94819.38;;;5.30;100.00
9774;BME280;4926;42.670;23.316;2023-03-20T04:53:38;94818.78;;;5.49;99.73
9774;BME280;4926;42.670;23.316;2023-03-20T04:56:06;94826.88;;;5.64;98.71
9774;BME280;4926;42.670;23.316;2023-03-20T04:58:33;94830.66;;;5.74;98.17
9774;BME280;4926;42.670;23.316;2023-03-20T05:01:02;94822.06;;;5.83;97.00
9774;BME280;4926;42.670;23.316;2023-03-20T05:03:29;94810.50;;;5.89;96.41
9774;BME280;4926;42.670;23.316;2023-03-20T05:05:56;94822.78;;;6.05;95.14
9774;BME280;4926;42.670;23.316;2023-03-20T05:08:22;94826.25;;;6.11;94.48
9774;BME280;4926;42.670;23.316;2023-03-20T05:10:49;94824.75;;;6.20;93.21
9774;BME280;4926;42.670;23.316;2023-03-20T05:13:16;94810.97;;;6.18;92.69
9774;BME280;4926;42.670;23.316;2023-03-20T05:15:42;94818.78;;;6.34;92.75
9774;BME280;4926;42.670;23.316;2023-03-20T05:18:11;94820.41;;;6.40;91.83
9774;BME280;4926;42.670;23.316;2023-03-20T05:20:37;94831.09;;;6.55;90.90
9774;BME280;4926;42.670;23.316;2023-03-20T05:23:05;94827.22;;;6.68;89.12
9774;BME280;4926;42.670;23.316;2023-03-20T05:25:52;94833.06;;;6.75;88.27
9774;BME280;4926;42.670;23.316;2023-03-20T05:28:18;94821.16;;;6.77;87.93
9774;BME280;4926;42.670;23.316;2023-03-20T05:30:48;94834.22;;;6.89;86.82
9774;BME280;4926;42.670;23.316;2023-03-20T05:33:16;94817.50;;;6.84;86.33
9774;BME280;4926;42.670;23.316;2023-03-20T05:35:43;94832.09;;;6.91;85.89
9774;BME280;4926;42.670;23.316;2023-03-20T05:38:10;94832.72;;;7.08;85.88
9774;BME280;4926;42.670;23.316;2023-03-20T05:40:40;94837.50;;;7.11;85.66
9774;BME280;4926;42.670;23.316;2023-03-20T05:43:08;94832.72;;;7.08;85.54
9774;BME280;4926;42.670;23.316;2023-03-20T05:45:35;94839.13;;;7.22;85.43
9774;BME280;4926;42.670;23.316;2023-03-20T05:48:01;94836.53;;;7.37;84.48
9774;BME280;4926;42.670;23.316;2023-03-20T05:50:38;94841.84;;;7.47;83.46
9774;BME280;4926;42.670;23.316;2023-03-20T05:53:05;94848.50;;;7.55;83.14
9774;BME280;4926;42.670;23.316;2023-03-20T05:55:34;94846.16;;;7.63;82.66
9774;BME280;4926;42.670;23.316;2023-03-20T05:58:01;94844.84;;;7.76;82.03
9774;BME280;4926;42.670;23.316;2023-03-20T06:00:28;94838.75;;;7.85;81.49
9774;BME280;4926;42.670;23.316;2023-03-20T06:02:54;94827.94;;;7.92;80.76
9774;BME280;4926;42.670;23.316;2023-03-20T06:05:26;94834.03;;;8.03;80.09
9774;BME280;4926;42.670;23.316;2023-03-20T06:07:54;94827.16;;;8.12;79.41
9774;BME280;4926;42.670;23.316;2023-03-20T06:10:21;94826.66;;;8.25;78.59
9774;BME280;4926;42.670;23.316;2023-03-20T06:12:51;94835.13;;;8.32;78.13
9774;BME280;4926;42.670;23.316;2023-03-20T06:15:18;94831.16;;;8.44;77.51
9774;BME280;4926;42.670;23.316;2023-03-20T06:17:45;94834.63;;;8.50;76.62
9774;BME280;4926;42.670;23.316;2023-03-20T06:20:12;94836.19;;;8.66;75.65
9774;BME280;4926;42.670;23.316;2023-03-20T06:22:39;94840.41;;;8.77;74.91
9774;BME280;4926;42.670;23.316;2023-03-20T06:25:08;94834.31;;;8.71;74.50
9774;BME280;4926;42.670;23.316;2023-03-20T06:27:35;94834.03;;;8.83;74.49
9774;BME280;4926;42.670;23.316;2023-03-20T06:30:02;94831.34;;;8.98;72.91
9774;BME280;4926;42.670;23.316;2023-03-20T06:32:29;94836.34;;;9.04;72.12
9774;BME280;4926;42.670;23.316;2023-03-20T06:34:56;94831.56;;;9.17;71.26
9774;BME280;4926;42.670;23.316;2023-03-20T06:37:24;94829.13;;;9.30;70.44
9774;BME280;4926;42.670;23.316;2023-03-20T06:39:56;94838.31;;;9.53;69.54
9774;BME280;4926;42.670;23.316;2023-03-20T06:42:24;94841.97;;;9.67;68.86
9774;BME280;4926;42.670;23.316;2023-03-20T06:44:51;94829.34;;;9.87;68.01
9774;BME280;4926;42.670;23.316;2023-03-20T06:47:17;94830.28;;;10.11;67.70
9774;BME280;4926;42.670;23.316;2023-03-20T06:49:44;94828.25;;;10.32;66.18
9774;BME280;4926;42.670;23.316;2023-03-20T06:52:13;94817.75;;;10.51;65.26
9774;BME280;4926;42.670;23.316;2023-03-20T06:54:41;94814.28;;;10.50;64.79
9774;BME280;4926;42.670;23.316;2023-03-20T06:57:12;94807.56;;;10.58;64.57
9774;BME280;4926;42.670;23.316;2023-03-20T06:59:40;94805.38;;;10.65;63.33
9774;BME280;4926;42.670;23.316;2023-03-20T07:02:14;94808.41;;;10.82;63.37
9774;BME280;4926;42.670;23.316;2023-03-20T07:04:42;94802.50;;;10.85;62.79
9774;BME280;4926;42.670;23.316;2023-03-20T07:07:09;94804.97;;;11.05;62.88
9774;BME280;4926;42.670;23.316;2023-03-20T07:09:35;94801.97;;;11.35;61.84
9774;BME280;4926;42.670;23.316;2023-03-20T07:12:08;94790.91;;;11.65;61.68
9774;BME280;4926;42.670;23.316;2023-03-20T07:14:35;94795.03;;;11.95;60.23
9774;BME280;4926;42.670;23.316;2023-03-20T07:17:03;94773.41;;;12.15;59.07
9774;BME280;4926;42.670;23.316;2023-03-20T07:19:36;94784.06;;;12.15;58.19
9774;BME280;4926;42.670;23.316;2023-03-20T07:22:06;94791.84;;;12.30;58.36
9774;BME280;4926;42.670;23.316;2023-03-20T07:24:36;94777.06;;;12.51;57.07
9774;BME280;4926;42.670;23.316;2023-03-20T07:27:02;94779.66;;;12.56;57.83
9774;BME280;4926;42.670;23.316;2023-03-20T07:29:32;94777.34;;;12.95;57.01
9774;BME280;4926;42.670;23.316;2023-03-20T07:31:59;94778.19;;;13.23;55.74
9774;BME280;4926;42.670;23.316;2023-03-20T07:34:28;94773.13;;;13.21;55.36
9774;BME280;4926;42.670;23.316;2023-03-20T07:36:55;94773.03;;;13.40;55.33
9774;BME280;4926;42.670;23.316;2023-03-20T07:39:21;94772.06;;;13.36;54.50
9774;BME280;4926;42.670;23.316;2023-03-20T07:41:51;94773.81;;;13.40;54.59
9774;BME280;4926;42.670;23.316;2023-03-20T07:44:18;94779.84;;;13.60;54.01
9774;BME280;4926;42.670;23.316;2023-03-20T07:46:45;94780.31;;;13.75;53.58
9774;BME280;4926;42.670;23.316;2023-03-20T07:49:12;94771.22;;;13.76;53.17
9774;BME280;4926;42.670;23.316;2023-03-20T07:51:40;94767.00;;;13.97;53.36
9774;BME280;4926;42.670;23.316;2023-03-20T07:54:09;94766.88;;;14.38;52.58
9774;BME280;4926;42.670;23.316;2023-03-20T07:56:36;94766.03;;;14.82;51.43
9774;BME280;4926;42.670;23.316;2023-03-20T07:59:05;94753.56;;;15.16;50.16
9774;BME280;4926;42.670;23.316;2023-03-20T08:01:32;94749.91;;;15.43;49.27
9774;BME280;4926;42.670;23.316;2023-03-20T08:03:59;94740.47;;;15.71;48.95
9774;BME280;4926;42.670;23.316;2023-03-20T08:06:29;94735.88;;;15.72;48.49
9774;BME280;4926;42.670;23.316;2023-03-20T08:08:57;94731.66;;;15.88;48.19
9774;BME280;4926;42.670;23.316;2023-03-20T08:11:26;94732.94;;;15.90;47.61
9774;BME280;4926;42.670;23.316;2023-03-20T08:13:55;94734.16;;;16.10;47.47
9774;BME280;4926;42.670;23.316;2023-03-20T08:16:21;94720.59;;;16.49;46.39
9774;BME280;4926;42.670;23.316;2023-03-20T08:18:48;94716.44;;;16.68;45.90
9774;BME280;4926;42.670;23.316;2023-03-20T08:21:17;94720.16;;;16.93;45.62
9774;BME280;4926;42.670;23.316;2023-03-20T08:23:44;94718.63;;;17.13;44.63
9774;BME280;4926;42.670;23.316;2023-03-20T08:29:30;94712.97;;;17.06;44.80
9774;BME280;4926;42.670;23.316;2023-03-20T08:31:56;94708.63;;;17.22;44.42
9774;BME280;4926;42.670;23.316;2023-03-20T08:34:23;94715.75;;;17.55;43.93
9774;BME280;4926;42.670;23.316;2023-03-20T08:36:50;94721.97;;;17.76;43.83
9774;BME280;4926;42.670;23.316;2023-03-20T08:39:17;94708.84;;;17.46;43.48
9774;BME280;4926;42.670;23.316;2023-03-20T08:41:44;94698.13;;;17.29;43.95
9774;BME280;4926;42.670;23.316;2023-03-20T08:44:11;94708.16;;;17.20;43.86
9774;BME280;4926;42.670;23.316;2023-03-20T08:46:39;94705.97;;;17.51;43.47
9774;BME280;4926;42.670;23.316;2023-03-20T08:49:08;94703.03;;;17.85;43.17
9774;BME280;4926;42.670;23.316;2023-03-20T08:51:37;94693.66;;;18.12;42.59
9774;BME280;4926;42.670;23.316;2023-03-20T08:54:03;94681.03;;;18.57;41.19
9774;BME280;4926;42.670;23.316;2023-03-20T08:56:30;94680.25;;;18.68;41.14
9774;BME280;4926;42.670;23.316;2023-03-20T08:58:57;94676.88;;;18.39;41.37
9774;BME280;4926;42.670;23.316;2023-03-20T09:01:24;94674.56;;;18.70;41.02
9774;BME280;4926;42.670;23.316;2023-03-20T09:03:52;94674.16;;;18.47;41.17
9774;BME280;4926;42.670;23.316;2023-03-20T09:06:19;94668.28;;;18.90;40.96
9774;BME280;4926;42.670;23.316;2023-03-20T09:08:45;94662.53;;;19.16;40.08
9774;BME280;4926;42.670;23.316;2023-03-20T09:11:12;94665.41;;;19.31;40.16
9774;BME280;4926;42.670;23.316;2023-03-20T09:13:39;94661.00;;;19.39;41.22
9774;BME280;4926;42.670;23.316;2023-03-20T09:16:08;94648.97;;;19.24;39.58
9774;BME280;4926;42.670;23.316;2023-03-20T09:18:37;94640.63;;;19.29;39.71
9774;BME280;4926;42.670;23.316;2023-03-20T09:21:06;94641.75;;;19.64;39.57
9774;BME280;4926;42.670;23.316;2023-03-20T09:23:33;94648.06;;;19.44;39.46
9774;BME280;4926;42.670;23.316;2023-03-20T09:26:02;94641.06;;;19.95;38.97
9774;BME280;4926;42.670;23.316;2023-03-20T09:28:29;94630.97;;;20.47;37.98
9774;BME280;4926;42.670;23.316;2023-03-20T09:30:58;94614.19;;;20.42;37.62
9774;BME280;4926;42.670;23.316;2023-03-20T09:33:25;94624.19;;;20.84;37.44
9774;BME280;4926;42.670;23.316;2023-03-20T09:35:52;94609.88;;;21.15;37.04
9774;BME280;4926;42.670;23.316;2023-03-20T09:38:20;94602.63;;;20.72;36.91
9774;BME280;4926;42.670;23.316;2023-03-20T09:40:52;94598.94;;;20.96;37.20
9774;BME280;4926;42.670;23.316;2023-03-20T09:43:28;94594.66;;;21.61;36.31
9774;BME280;4926;42.670;23.316;2023-03-20T09:46:08;94585.38;;;21.43;36.10
9774;BME280;4926;42.670;23.316;2023-03-20T09:48:44;94584.75;;;21.15;36.78
9774;BME280;4926;42.670;23.316;2023-03-20T09:51:24;94577.53;;;21.38;36.47
9774;BME280;4926;42.670;23.316;2023-03-20T09:54:03;94564.78;;;21.57;35.90
9774;BME280;4926;42.670;23.316;2023-03-20T09:56:35;94557.25;;;21.32;36.37
9774;BME280;4926;42.670;23.316;2023-03-20T09:59:04;94552.88;;;21.43;36.15
9774;BME280;4926;42.670;23.316;2023-03-20T10:01:35;94538.03;;;21.75;35.55
9774;BME280;4926;42.670;23.316;2023-03-20T10:04:09;94533.19;;;22.03;35.48
9774;BME280;4926;42.670;23.316;2023-03-20T10:06:37;94534.50;;;22.09;35.19
9774;BME280;4926;42.670;23.316;2023-03-20T10:09:13;94526.94;;;20.91;36.77
9774;BME280;4926;42.670;23.316;2023-03-20T10:11:59;94537.44;;;20.77;37.21
9774;BME280;4926;42.670;23.316;2023-03-20T10:14:37;94524.63;;;21.25;36.73
9774;BME280;4926;42.670;23.316;2023-03-20T10:17:28;94517.66;;;21.43;35.79
9774;BME280;4926;42.670;23.316;2023-03-20T10:19:58;94509.81;;;21.76;35.41
9774;BME280;4926;42.670;23.316;2023-03-20T10:22:35;94499.41;;;22.61;34.34
9774;BME280;4926;42.670;23.316;2023-03-20T10:25:15;94499.41;;;22.61;34.61
9774;BME280;4926;42.670;23.316;2023-03-20T10:27:51;94503.50;;;22.10;35.22
9774;BME280;4926;42.670;23.316;2023-03-20T10:30:31;94510.19;;;21.74;35.69
9774;BME280;4926;42.670;23.316;2023-03-20T10:33:09;94502.88;;;21.97;35.22
9774;BME280;4926;42.670;23.316;2023-03-20T10:35:50;94490.56;;;22.45;34.29
9774;BME280;4926;42.670;23.316;2023-03-20T10:38:27;94478.38;;;23.07;33.86
9774;BME280;4926;42.670;23.316;2023-03-20T10:40:58;94484.59;;;23.34;33.96
9774;BME280;4926;42.670;23.316;2023-03-20T10:43:28;94474.41;;;23.60;33.39
9774;BME280;4926;42.670;23.316;2023-03-20T10:46:00;94460.81;;;23.93;32.42
9774;BME280;4926;42.670;23.316;2023-03-20T10:48:32;94450.56;;;23.80;33.06
9774;BME280;4926;42.670;23.316;2023-03-20T10:51:01;94453.84;;;23.96;32.70
9774;BME280;4926;42.670;23.316;2023-03-20T10:53:31;94445.31;;;24.34;31.96
9774;BME280;4926;42.670;23.316;2023-03-20T10:56:12;94433.44;;;24.56;31.79
9774;BME280;4926;42.670;23.316;2023-03-20T10:58:42;94439.72;;;24.20;31.86
9774;BME280;4926;42.670;23.316;2023-03-20T11:01:10;94430.19;;;24.40;31.45
9774;BME280;4926;42.670;23.316;2023-03-20T11:03:41;94430.41;;;24.68;30.86
9774;BME280;4926;42.670;23.316;2023-03-20T11:06:15;94411.97;;;25.05;30.29
9774;BME280;4926;42.670;23.316;2023-03-20T11:08:47;94414.91;;;25.41;30.27
9774;BME280;4926;42.670;23.316;2023-03-20T11:11:22;94390.50;;;25.83;29.21
9774;BME280;4926;42.670;23.316;2023-03-20T11:13:49;94385.91;;;26.15;29.27
9774;BME280;4926;42.670;23.316;2023-03-20T11:16:29;94378.78;;;25.65;29.29
9774;BME280;4926;42.670;23.316;2023-03-20T11:19:03;94382.63;;;25.50;29.55
9774;BME280;4926;42.670;23.316;2023-03-20T11:21:31;94384.31;;;26.07;28.71
9774;BME280;4926;42.670;23.316;2023-03-20T11:24:00;94362.47;;;26.70;27.60
9774;BME280;4926;42.670;23.316;2023-03-20T11:26:33;94353.88;;;26.75;27.84
9774;BME280;4926;42.670;23.316;2023-03-20T11:29:01;94346.03;;;26.91;27.68
9774;BME280;4926;42.670;23.316;2023-03-20T11:31:36;94332.72;;;27.07;27.41
9774;BME280;4926;42.670;23.316;2023-03-20T11:34:21;94335.84;;;27.09;26.98
9774;BME280;4926;42.670;23.316;2023-03-20T11:36:57;94325.06;;;26.46;27.03
9774;BME280;4926;42.670;23.316;2023-03-20T11:39:27;94342.00;;;25.23;28.41
9774;BME280;4926;42.670;23.316;2023-03-20T11:42:00;94344.53;;;25.85;28.56
9774;BME280;4926;42.670;23.316;2023-03-20T11:44:29;94316.47;;;26.02;27.45
9774;BME280;4926;42.670;23.316;2023-03-20T11:47:11;94311.81;;;26.20;27.43
9774;BME280;4926;42.670;23.316;2023-03-20T11:49:45;94297.34;;;25.56;27.49
9774;BME280;4926;42.670;23.316;2023-03-20T11:52:19;94297.41;;;26.05;26.79
9774;BME280;4926;42.670;23.316;2023-03-20T11:54:49;94289.97;;;26.41;26.68
9774;BME280;4926;42.670;23.316;2023-03-20T11:57:30;94293.81;;;26.68;26.49
9774;BME280;4926;42.670;23.316;2023-03-20T12:00:00;94275.81;;;26.88;26.24
9774;BME280;4926;42.670;23.316;2023-03-20T12:02:28;94286.63;;;24.91;27.39
9774;BME280;4926;42.670;23.316;2023-03-20T12:04:58;94293.25;;;24.97;27.78
9774;BME280;4926;42.670;23.316;2023-03-20T12:07:32;94284.47;;;25.39;27.79
9774;BME280;4926;42.670;23.316;2023-03-20T12:10:03;94279.84;;;25.75;26.91
9774;BME280;4926;42.670;23.316;2023-03-20T12:12:38;94281.78;;;25.81;27.20
9774;BME280;4926;42.670;23.316;2023-03-20T12:15:13;94268.16;;;25.99;26.87
9774;BME280;4926;42.670;23.316;2023-03-20T12:17:46;94259.50;;;26.53;25.89
9774;BME280;4926;42.670;23.316;2023-03-20T12:20:31;94252.75;;;26.93;25.56
9774;BME280;4926;42.670;23.316;2023-03-20T12:23:10;94253.06;;;27.09;25.32
9774;BME280;4926;42.670;23.316;2023-03-20T12:25:50;94260.09;;;27.10;25.30
9774;BME280;4926;42.670;23.316;2023-03-20T12:28:26;94268.41;;;26.85;25.49
9774;BME280;4926;42.670;23.316;2023-03-20T12:31:08;94265.81;;;26.29;25.69
9774;BME280;4926;42.670;23.316;2023-03-20T12:33:44;94264.56;;;26.58;25.74
9774;BME280;4926;42.670;23.316;2023-03-20T12:36:31;94264.84;;;26.95;25.73
9774;BME280;4926;42.670;23.316;2023-03-20T12:39:00;94255.41;;;27.07;25.11
9774;BME280;4926;42.670;23.316;2023-03-20T12:41:29;94249.44;;;27.26;24.76
9774;BME280;4926;42.670;23.316;2023-03-20T12:44:13;94235.56;;;27.65;24.59
9774;BME280;4926;42.670;23.316;2023-03-20T12:46:49;94244.84;;;27.78;23.69
9774;BME280;4926;42.670;23.316;2023-03-20T12:49:26;94225.63;;;27.33;24.22
9774;BME280;4926;42.670;23.316;2023-03-20T12:52:01;94221.59;;;27.48;23.84
9774;BME280;4926;42.670;23.316;2023-03-20T12:54:49;94219.28;;;27.43;23.62
9774;BME280;4926;42.670;23.316;2023-03-20T12:57:33;94216.34;;;27.13;23.47
9774;BME280;4926;42.670;23.316;2023-03-20T13:00:14;94211.25;;;27.15;23.26
9774;BME280;4926;42.670;23.316;2023-03-20T13:02:52;94212.13;;;27.02;24.11
9774;BME280;4926;42.670;23.316;2023-03-20T13:05:32;94200.22;;;26.54;23.74
9774;BME280;4926;42.670;23.316;2023-03-20T13:08:17;94205.38;;;26.20;24.40
9774;BME280;4926;42.670;23.316;2023-03-20T13:10:55;94206.53;;;26.26;24.10
9774;BME280;4926;42.670;23.316;2023-03-20T13:13:32;94200.34;;;26.08;24.25
9774;BME280;4926;42.670;23.316;2023-03-20T13:16:12;94205.03;;;25.41;24.65
9774;BME280;4926;42.670;23.316;2023-03-20T13:18:54;94204.16;;;24.91;25.28
9774;BME280;4926;42.670;23.316;2023-03-20T13:21:28;94193.69;;;25.14;24.70
9774;BME280;4926;42.670;23.316;2023-03-20T13:24:10;94195.66;;;25.27;24.87
9774;BME280;4926;42.670;23.316;2023-03-20T13:26:45;94186.31;;;25.85;24.51
9774;BME280;4926;42.670;23.316;2023-03-20T13:29:18;94184.00;;;26.04;24.10
9774;BME280;4926;42.670;23.316;2023-03-20T13:31:58;94181.28;;;25.76;24.43
9774;BME280;4926;42.670;23.316;2023-03-20T13:34:38;94180.09;;;25.81;24.37
9774;BME280;4926;42.670;23.316;2023-03-20T13:37:32;94180.09;;;25.60;24.06
9774;BME280;4926;42.670;23.316;2023-03-20T13:40:05;94178.88;;;24.94;24.79
9774;BME280;4926;42.670;23.316;2023-03-20T13:42:40;94166.72;;;24.63;25.21
9774;BME280;4926;42.670;23.316;2023-03-20T13:45:24;94172.97;;;24.78;25.37
9774;BME280;4926;42.670;23.316;2023-03-20T13:47:54;94171.47;;;24.94;25.50
9774;BME280;4926;42.670;23.316;2023-03-20T13:50:32;94175.38;;;25.07;25.13
9774;BME280;4926;42.670;23.316;2023-03-20T13:53:09;94172.28;;;25.12;24.92